Time;durP1;ratioP1;P1;durP2;ratioP2;P2;SDS_P1;SDS_P2;PMS_P1;PMS_P2;Temp;Humidity;BMP_temperature;BMP_pressure;BME280_temperature;BME280_humidity;BME280_pressure;Samples;Min_cycle;Max_cycle;Signal;HPM_P1;HPM_P2
2024/02/04 00:02:07;;;;;;;;;;;;;;;7.26;100.00;100119.80;137069;1276;22387;-75
2024/02/04 00:05:07;;;;;;;;;;;;;;;7.24;100.00;100121.73;137071;1276;23063;-76
2024/02/04 00:08:09;;;;;;;;;;;;;;;7.24;100.00;100119.19;137091;1275;22427;-75
2024/02/04 00:11:11;;;;;;;;;;;;;;;7.23;100.00;100114.27;137072;1276;22396;-76
2024/02/04 00:14:14;;;;;;;;;;;;;;;7.24;100.00;100105.95;137117;1276;22406;-76
2024/02/04 00:17:15;;;;;;;;;;;;;;;7.24;100.00;100108.57;137137;1276;22422;-74
2024/02/04 00:20:16;;;;;;;;;;;;;;;7.23;100.00;100103.16;137045;1276;22390;-75
2024/02/04 00:23:16;;;;;;;;;;;;;;;7.22;100.00;100110.21;137112;1276;22412;-75
2024/02/04 00:26:17;;;;;;;;;;;;;;;7.20;100.00;100113.15;137093;1276;22454;-74
2024/02/04 00:29:18;;;;;;;;;;;;;;;7.17;100.00;100116.20;137105;1276;22377;-74
2024/02/04 00:32:18;;;;;;;;;;;;;;;7.16;100.00;100113.91;137114;1276;22452;-74
2024/02/04 00:35:19;;;;;;;;;;;;;;;7.14;100.00;100114.20;137086;1270;22410;-74
2024/02/04 00:38:19;;;;;;;;;;;;;;;7.12;100.00;100108.39;136985;1276;22377;-74
2024/02/04 00:41:20;;;;;;;;;;;;;;;7.13;100.00;100115.21;137025;1276;22383;-74
2024/02/04 00:44:21;;;;;;;;;;;;;;;7.12;100.00;100115.66;137032;1276;22421;-74
2024/02/04 00:47:21;;;;;;;;;;;;;;;7.11;100.00;100119.80;137025;1276;22452;-74
2024/02/04 00:50:22;;;;;;;;;;;;;;;7.10;100.00;100123.09;137035;1276;22400;-74
2024/02/04 00:53:23;;;;;;;;;;;;;;;7.09;99.97;100121.71;137108;1276;23165;-74
2024/02/04 00:56:23;;;;;;;;;;;;;;;7.08;99.98;100120.26;137044;1276;22372;-74
2024/02/04 00:59:24;;;;;;;;;;;;;;;7.07;99.93;100118.10;137109;1276;23070;-74
2024/02/04 01:02:25;;;;;;;;;;;;;;;7.06;99.54;100116.92;137141;1276;22357;-74
2024/02/04 01:05:25;;;;;;;;;;;;;;;7.06;99.64;100122.06;137106;1276;22390;-74
2024/02/04 01:08:26;;;;;;;;;;;;;;;7.02;99.58;100123.23;137113;1276;22989;-74
2024/02/04 01:11:26;;;;;;;;;;;;;;;6.98;99.65;100124.23;136985;1276;23084;-74
2024/02/04 01:14:27;;;;;;;;;;;;;;;6.92;99.42;100127.74;137098;1276;22389;-74
2024/02/04 01:17:27;;;;;;;;;;;;;;;6.88;99.41;100125.67;137097;1276;22439;-74
2024/02/04 01:20:28;;;;;;;;;;;;;;;6.85;99.22;100123.48;137129;1276;22390;-74
2024/02/04 01:23:29;;;;;;;;;;;;;;;6.81;99.09;100122.05;137116;1276;22390;-74
2024/02/04 01:26:29;;;;;;;;;;;;;;;6.79;99.05;100122.83;137124;1276;22596;-75
2024/02/04 01:29:30;;;;;;;;;;;;;;;6.75;99.12;100118.96;137118;1276;23282;-74
2024/02/04 01:32:30;;;;;;;;;;;;;;;6.70;98.98;100116.64;137117;1276;22404;-74
2024/02/04 01:35:31;;;;;;;;;;;;;;;6.64;98.58;100117.34;137123;1276;22410;-74
2024/02/04 01:38:32;;;;;;;;;;;;;;;6.64;98.60;100111.50;137124;1276;23154;-74
2024/02/04 01:41:33;;;;;;;;;;;;;;;6.62;98.15;100108.57;137044;1276;23634;-75
2024/02/04 01:44:33;;;;;;;;;;;;;;;6.59;97.82;100106.02;137114;1276;23093;-75
2024/02/04 01:47:34;;;;;;;;;;;;;;;6.55;97.90;100112.69;137127;1276;23214;-75
2024/02/04 01:50:35;;;;;;;;;;;;;;;6.49;97.67;100119.36;137195;1271;23117;-74
2024/02/04 01:53:36;;;;;;;;;;;;;;;6.47;97.78;100114.98;137142;1276;22376;-74
2024/02/04 01:56:39;;;;;;;;;;;;;;;6.44;97.63;100116.69;137137;1276;23581;-75
2024/02/04 01:59:40;;;;;;;;;;;;;;;6.42;97.77;100123.90;136943;1276;22405;-74
2024/02/04 02:02:41;;;;;;;;;;;;;;;6.39;97.72;100119.06;137141;1276;22390;-74
2024/02/04 02:05:42;;;;;;;;;;;;;;;6.38;97.51;100109.18;136962;1276;22422;-75
2024/02/04 02:08:43;;;;;;;;;;;;;;;6.38;97.64;100112.15;137087;1276;23274;-74
2024/02/04 02:11:45;;;;;;;;;;;;;;;6.39;97.69;100115.23;137148;1276;23148;-75
2024/02/04 02:14:57;;;;;;;;;;;;;;;6.41;97.77;100124.48;137032;1276;23158;-74
2024/02/04 02:18:04;;;;;;;;;;;;;;;6.43;97.93;100125.25;137136;1276;23064;-74
2024/02/04 02:21:23;;;;;;;;;;;;;;;6.44;97.94;100130.96;137132;1276;23125;-74
2024/02/04 02:24:24;;;;;;;;;;;;;;;6.46;98.08;100131.76;137124;1276;22391;-74
2024/02/04 02:27:25;;;;;;;;;;;;;;;6.48;98.07;100136.15;137166;1276;22390;-74
2024/02/04 02:30:28;;;;;;;;;;;;;;;6.48;98.29;100133.52;137133;1276;23503;-74
2024/02/04 02:33:29;;;;;;;;;;;;;;;6.49;98.39;100120.46;137184;1276;22404;-74
2024/02/04 02:36:33;;;;;;;;;;;;;;;6.50;98.56;100107.65;137090;1276;22418;-74
2024/02/04 02:39:42;;;;;;;;;;;;;;;6.50;98.97;100103.51;137139;1276;22290;-74
2024/02/04 02:42:45;;;;;;;;;;;;;;;6.51;98.95;100096.71;137175;1270;22383;-74
2024/02/04 02:45:46;;;;;;;;;;;;;;;6.53;99.34;100094.05;137136;1276;22390;-74
2024/02/04 02:48:47;;;;;;;;;;;;;;;6.54;99.40;100100.62;137159;1276;22545;-74
2024/02/04 02:51:48;;;;;;;;;;;;;;;6.56;99.42;100104.02;137151;1270;22374;-75
2024/02/04 02:54:48;;;;;;;;;;;;;;;6.56;99.88;100104.00;137167;1276;22394;-74
2024/02/04 02:57:48;;;;;;;;;;;;;;;6.56;99.98;100100.98;137113;1276;23175;-74
2024/02/04 03:00:49;;;;;;;;;;;;;;;6.57;100.00;100101.28;137120;1272;23228;-74
2024/02/04 03:03:50;;;;;;;;;;;;;;;6.54;100.00;100091.86;137139;1276;22401;-75
2024/02/04 03:06:51;;;;;;;;;;;;;;;6.55;100.00;100099.67;137017;1277;23052;-75
2024/02/04 03:09:55;;;;;;;;;;;;;;;6.55;100.00;100099.30;137115;1277;23192;-75
2024/02/04 03:12:55;;;;;;;;;;;;;;;6.56;100.00;100097.89;137121;1276;22363;-75
2024/02/04 03:15:56;;;;;;;;;;;;;;;6.57;100.00;100093.05;137094;1276;23179;-75
2024/02/04 03:18:57;;;;;;;;;;;;;;;6.59;100.00;100087.56;137078;1276;22456;-75
2024/02/04 03:21:57;;;;;;;;;;;;;;;6.60;100.00;100083.56;136971;1277;23250;-75
2024/02/04 03:24:58;;;;;;;;;;;;;;;6.59;100.00;100075.38;137143;1276;22364;-75
2024/02/04 03:27:58;;;;;;;;;;;;;;;6.55;100.00;100072.62;137098;1277;22389;-75
2024/02/04 03:30:59;;;;;;;;;;;;;;;6.52;100.00;100071.34;136983;1277;23237;-74
2024/02/04 03:34:00;;;;;;;;;;;;;;;6.50;100.00;100074.88;137151;1276;22394;-74
2024/02/04 03:37:01;;;;;;;;;;;;;;;6.46;100.00;100079.46;136981;1276;22373;-74
2024/02/04 03:40:01;;;;;;;;;;;;;;;6.44;100.00;100083.64;136887;1277;22398;-75
2024/02/04 03:43:02;;;;;;;;;;;;;;;6.42;99.95;100081.71;137044;1277;22413;-74
2024/02/04 03:46:03;;;;;;;;;;;;;;;6.37;99.51;100098.17;137141;1277;22387;-74
2024/02/04 03:49:03;;;;;;;;;;;;;;;6.31;99.18;100106.45;137127;1276;22391;-74
2024/02/04 03:52:04;;;;;;;;;;;;;;;6.26;98.98;100102.34;137140;1276;22396;-74
2024/02/04 03:55:07;;;;;;;;;;;;;;;6.20;98.55;100108.50;137108;1277;22423;-74
2024/02/04 03:58:08;;;;;;;;;;;;;;;6.13;98.27;100109.73;136974;1277;22563;-75
2024/02/04 04:01:12;;;;;;;;;;;;;;;6.06;98.31;100110.96;137145;1276;22405;-74
2024/02/04 04:04:16;;;;;;;;;;;;;;;6.01;97.92;100120.45;137096;1276;23293;-74
2024/02/04 04:07:16;;;;;;;;;;;;;;;5.96;97.88;100121.34;137182;1277;22369;-74
2024/02/04 04:10:17;;;;;;;;;;;;;;;5.94;97.93;100121.52;137160;1276;22427;-74
2024/02/04 04:13:17;;;;;;;;;;;;;;;5.93;97.62;100126.54;137160;1276;23460;-74
2024/02/04 04:16:20;;;;;;;;;;;;;;;5.89;97.31;100123.91;136935;1276;22386;-75
2024/02/04 04:19:20;;;;;;;;;;;;;;;5.83;97.25;100126.48;137148;1276;22387;-74
2024/02/04 04:22:21;;;;;;;;;;;;;;;5.78;96.81;100121.82;137094;1276;22388;-74
2024/02/04 04:25:21;;;;;;;;;;;;;;;5.76;96.66;100120.42;137143;1276;22445;-75
2024/02/04 04:28:25;;;;;;;;;;;;;;;5.74;96.34;100134.02;137151;1276;22379;-74
2024/02/04 04:31:26;;;;;;;;;;;;;;;5.69;96.19;100139.52;137138;1275;22384;-74
2024/02/04 04:34:26;;;;;;;;;;;;;;;5.63;96.02;100141.42;137170;1276;22464;-74
2024/02/04 04:37:27;;;;;;;;;;;;;;;5.58;95.81;100144.17;137060;1273;22421;-74
2024/02/04 04:40:27;;;;;;;;;;;;;;;5.57;95.60;100144.05;137095;1265;22354;-75
2024/02/04 04:43:30;;;;;;;;;;;;;;;5.57;95.10;100146.00;136975;1276;22456;-75
2024/02/04 04:46:30;;;;;;;;;;;;;;;5.59;94.90;100143.58;137080;1276;22369;-74
2024/02/04 04:49:31;;;;;;;;;;;;;;;5.62;94.61;100147.33;137115;1276;22366;-74
2024/02/04 04:52:32;;;;;;;;;;;;;;;5.63;94.40;100144.23;137117;1276;22437;-74
2024/02/04 04:55:33;;;;;;;;;;;;;;;5.65;94.22;100150.80;137104;1276;22398;-74
2024/02/04 04:58:35;;;;;;;;;;;;;;;5.63;93.79;100136.67;137157;1276;22392;-74
2024/02/04 05:01:35;;;;;;;;;;;;;;;5.65;93.53;100137.61;137132;1272;22383;-74
2024/02/04 05:04:36;;;;;;;;;;;;;;;5.64;93.36;100133.64;137134;1276;22473;-74
2024/02/04 05:07:36;;;;;;;;;;;;;;;5.61;93.21;100135.63;137168;1276;22415;-75
2024/02/04 05:10:37;;;;;;;;;;;;;;;5.56;92.71;100138.91;137116;1275;22372;-74
2024/02/04 05:13:38;;;;;;;;;;;;;;;5.51;92.58;100139.03;137167;1276;22402;-74
2024/02/04 05:16:39;;;;;;;;;;;;;;;5.45;92.60;100137.10;137106;1276;22371;-74
2024/02/04 05:19:43;;;;;;;;;;;;;;;5.39;92.34;100134.92;137148;1276;22402;-74
2024/02/04 05:22:43;;;;;;;;;;;;;;;5.33;92.52;100138.91;137143;1276;22391;-74
2024/02/04 05:25:44;;;;;;;;;;;;;;;5.30;92.43;100136.42;137129;1276;22391;-74
2024/02/04 05:28:44;;;;;;;;;;;;;;;5.27;92.49;100140.58;137111;1276;22382;-73
2024/02/04 05:31:46;;;;;;;;;;;;;;;5.21;92.33;100145.95;137151;1273;22370;-73
2024/02/04 05:34:47;;;;;;;;;;;;;;;5.14;92.37;100147.98;137144;1276;22365;-74
2024/02/04 05:37:47;;;;;;;;;;;;;;;5.07;92.32;100148.71;137138;1273;22349;-73
2024/02/04 05:40:48;;;;;;;;;;;;;;;5.05;92.62;100152.63;137111;1276;22479;-74
2024/02/04 05:43:49;;;;;;;;;;;;;;;5.03;92.54;100158.43;137122;1275;22374;-74
2024/02/04 05:46:49;;;;;;;;;;;;;;;5.01;92.43;100153.16;137137;1276;22373;-73
2024/02/04 05:49:51;;;;;;;;;;;;;;;4.98;92.32;100147.78;137109;1275;22429;-74
2024/02/04 05:52:51;;;;;;;;;;;;;;;4.94;92.03;100148.08;137148;1276;23394;-73
2024/02/04 05:55:52;;;;;;;;;;;;;;;4.90;91.87;100145.27;137128;1276;23554;-73
2024/02/04 05:58:53;;;;;;;;;;;;;;;4.87;92.26;100143.04;137145;1276;22384;-74
2024/02/04 06:01:53;;;;;;;;;;;;;;;4.86;91.99;100150.92;137123;1276;22370;-73
2024/02/04 06:04:54;;;;;;;;;;;;;;;4.84;91.88;100150.85;137113;1272;22462;-74
2024/02/04 06:07:55;;;;;;;;;;;;;;;4.85;91.91;100154.77;136941;1276;22414;-73
2024/02/04 06:10:58;;;;;;;;;;;;;;;4.86;91.91;100149.98;137178;1276;22382;-73
2024/02/04 06:13:58;;;;;;;;;;;;;;;4.86;91.65;100148.23;136927;1276;22416;-73
2024/02/04 06:17:10;;;;;;;;;;;;;;;4.86;91.92;100151.88;137135;1276;22380;-73
2024/02/04 06:20:10;;;;;;;;;;;;;;;4.84;91.75;100149.09;136962;1276;22291;-73
2024/02/04 06:23:11;;;;;;;;;;;;;;;4.82;91.80;100146.46;137163;1270;22373;-73
2024/02/04 06:26:11;;;;;;;;;;;;;;;4.78;91.97;100152.78;137164;1276;22394;-72
2024/02/04 06:29:12;;;;;;;;;;;;;;;4.75;91.91;100155.69;137107;1276;22455;-72
2024/02/04 06:32:13;;;;;;;;;;;;;;;4.72;91.82;100162.17;137161;1276;22366;-73
2024/02/04 06:35:14;;;;;;;;;;;;;;;4.73;91.89;100156.35;136956;1277;22392;-74
2024/02/04 06:38:15;;;;;;;;;;;;;;;4.74;91.82;100154.20;137127;1276;22433;-72
2024/02/04 06:41:17;;;;;;;;;;;;;;;4.73;91.76;100148.15;137174;1276;22382;-73
2024/02/04 06:44:17;;;;;;;;;;;;;;;4.70;91.68;100148.17;137124;1276;22434;-72
2024/02/04 06:47:18;;;;;;;;;;;;;;;4.67;91.79;100155.61;137109;1277;23065;-72
2024/02/04 06:50:19;;;;;;;;;;;;;;;4.65;92.11;100165.24;137150;1277;22408;-72
2024/02/04 06:53:19;;;;;;;;;;;;;;;4.63;92.22;100173.67;137137;1271;22411;-72
2024/02/04 06:56:23;;;;;;;;;;;;;;;4.60;92.29;100177.36;137129;1277;22437;-73
2024/02/04 06:59:23;;;;;;;;;;;;;;;4.58;92.20;100179.11;137163;1277;23169;-72
2024/02/04 07:02:24;;;;;;;;;;;;;;;4.59;92.40;100183.43;137113;1276;22468;-73
2024/02/04 07:05:25;;;;;;;;;;;;;;;4.61;92.32;100173.65;137134;1277;22861;-75
2024/02/04 07:08:25;;;;;;;;;;;;;;;4.63;92.68;100170.67;137118;1276;22426;-73
2024/02/04 07:11:26;;;;;;;;;;;;;;;4.65;92.40;100170.01;137106;1277;22401;-72
2024/02/04 07:14:26;;;;;;;;;;;;;;;4.68;92.62;100166.43;137126;1277;23156;-72
2024/02/04 07:17:27;;;;;;;;;;;;;;;4.69;92.44;100157.35;137094;1277;22389;-75
2024/02/04 07:20:27;;;;;;;;;;;;;;;4.73;92.57;100154.05;137118;1277;22412;-72
2024/02/04 07:23:28;;;;;;;;;;;;;;;4.80;92.62;100152.43;137123;1277;22378;-74
2024/02/04 07:26:29;;;;;;;;;;;;;;;4.87;92.45;100148.13;137103;1277;22382;-73
2024/02/04 07:29:29;;;;;;;;;;;;;;;4.93;92.48;100142.91;137118;1272;23223;-71
2024/02/04 07:32:34;;;;;;;;;;;;;;;5.01;92.20;100137.69;137102;1276;22372;-71
2024/02/04 07:35:34;;;;;;;;;;;;;;;5.09;92.33;100132.05;137140;1276;22390;-72
2024/02/04 07:38:35;;;;;;;;;;;;;;;5.21;92.16;100135.13;137072;1276;22358;-73
2024/02/04 07:41:36;;;;;;;;;;;;;;;5.31;91.97;100145.80;137159;1276;22453;-75
2024/02/04 07:44:36;;;;;;;;;;;;;;;5.42;92.11;100149.30;137100;1277;22400;-73
2024/02/04 07:47:37;;;;;;;;;;;;;;;5.53;91.98;100154.59;137150;1277;22400;-73
2024/02/04 07:50:38;;;;;;;;;;;;;;;5.66;91.65;100148.03;137119;1277;22375;-73
2024/02/04 07:53:38;;;;;;;;;;;;;;;5.80;91.22;100143.98;137038;1277;22404;-73
2024/02/04 07:56:39;;;;;;;;;;;;;;;5.93;90.76;100152.67;137108;1277;22418;-73
2024/02/04 07:59:40;;;;;;;;;;;;;;;6.03;89.98;100153.55;137136;1277;22453;-73
2024/02/04 08:02:43;;;;;;;;;;;;;;;6.12;90.26;100147.20;137191;1276;22410;-72
2024/02/04 08:05:44;;;;;;;;;;;;;;;6.19;89.96;100147.91;137107;1276;22383;-75
2024/02/04 08:08:45;;;;;;;;;;;;;;;6.23;89.10;100150.73;137172;1275;22389;-72
2024/02/04 08:11:45;;;;;;;;;;;;;;;6.34;88.98;100149.96;137147;1276;22362;-73
2024/02/04 08:14:46;;;;;;;;;;;;;;;6.51;89.45;100153.27;137123;1276;22404;-71
2024/02/04 08:17:46;;;;;;;;;;;;;;;6.84;89.50;100141.17;137138;1276;22385;-71
2024/02/04 08:20:47;;;;;;;;;;;;;;;7.16;88.34;100138.11;137110;1276;22431;-71
2024/02/04 08:23:48;;;;;;;;;;;;;;;7.44;86.86;100142.36;137188;1273;22381;-72
2024/02/04 08:26:49;;;;;;;;;;;;;;;7.72;86.60;100143.91;137163;1275;22409;-71
2024/02/04 08:29:49;;;;;;;;;;;;;;;8.00;86.23;100141.73;137140;1276;22398;-72
2024/02/04 08:32:50;;;;;;;;;;;;;;;8.35;86.31;100136.15;137148;1276;22384;-70
2024/02/04 08:35:50;;;;;;;;;;;;;;;8.65;84.09;100138.20;137167;1276;22461;-73
2024/02/04 08:38:51;;;;;;;;;;;;;;;8.88;83.48;100130.33;137115;1276;22396;-77
2024/02/04 08:41:51;;;;;;;;;;;;;;;9.08;82.65;100122.92;137146;1276;22390;-77
2024/02/04 08:44:52;;;;;;;;;;;;;;;9.26;81.65;100116.13;137153;1276;22415;-79
2024/02/04 08:47:53;;;;;;;;;;;;;;;9.36;79.56;100116.60;137162;1276;23060;-77
2024/02/04 08:50:56;;;;;;;;;;;;;;;9.38;79.44;100119.11;137157;1276;22415;-77
2024/02/04 08:53:57;;;;;;;;;;;;;;;9.55;79.48;100125.81;137164;1273;22374;-74
2024/02/04 08:56:57;;;;;;;;;;;;;;;9.58;77.92;100122.84;137171;1276;23164;-73
2024/02/04 08:59:58;;;;;;;;;;;;;;;9.24;76.72;100116.14;137210;1276;23072;-74
2024/02/04 09:02:58;;;;;;;;;;;;;;;8.94;76.47;100113.92;137158;1276;23237;-73
2024/02/04 09:05:59;;;;;;;;;;;;;;;8.88;76.89;100109.02;137152;1276;22433;-73
2024/02/04 09:08:59;;;;;;;;;;;;;;;8.89;76.42;100107.34;137169;1276;22469;-71
2024/02/04 09:12:00;;;;;;;;;;;;;;;8.75;75.74;100110.55;137187;1276;22658;-71
2024/02/04 09:15:00;;;;;;;;;;;;;;;8.64;75.78;100106.04;137151;1276;22402;-71
2024/02/04 09:18:01;;;;;;;;;;;;;;;8.50;74.67;100087.08;137148;1276;22587;-71
2024/02/04 09:21:01;;;;;;;;;;;;;;;8.48;74.90;100077.15;137180;1276;23226;-72
2024/02/04 09:24:02;;;;;;;;;;;;;;;8.46;75.49;100078.02;137090;1276;23070;-71
2024/02/04 09:27:03;;;;;;;;;;;;;;;8.50;74.91;100078.25;137124;1275;23539;-70
2024/02/04 09:30:04;;;;;;;;;;;;;;;8.62;74.38;100089.33;137088;1276;22442;-71
2024/02/04 09:33:08;;;;;;;;;;;;;;;8.63;73.04;100083.70;137027;1276;213608;-71
2024/02/04 09:36:22;;;;;;;;;;;;;;;;;;;;;
2024/02/04 09:39:29;;;;;;;;;;;;;;;8.29;73.03;100086.19;137178;1276;22450;-71
2024/02/04 09:42:34;;;;;;;;;;;;;;;8.09;72.48;100084.66;137194;1276;23124;-72
2024/02/04 09:45:35;;;;;;;;;;;;;;;8.05;73.41;100079.77;137173;1276;23525;-71
2024/02/04 09:48:37;;;;;;;;;;;;;;;8.21;74.23;100070.11;137173;1276;22404;-73
2024/02/04 09:51:39;;;;;;;;;;;;;;;8.24;73.22;100071.56;137176;1276;22409;-72
2024/02/04 09:54:50;;;;;;;;;;;;;;;8.17;73.33;100079.34;137156;1276;22452;-73
2024/02/04 09:57:53;;;;;;;;;;;;;;;8.05;72.54;100076.73;137143;1272;22992;-73
2024/02/04 10:00:54;;;;;;;;;;;;;;;7.94;72.75;100070.95;136983;1276;23072;-73
2024/02/04 10:03:55;;;;;;;;;;;;;;;7.90;73.33;100076.33;137185;1276;22423;-71
2024/02/04 10:06:56;;;;;;;;;;;;;;;7.89;73.79;100066.02;137164;1276;23223;-71
2024/02/04 10:09:56;;;;;;;;;;;;;;;7.91;73.57;100054.92;137135;1276;23198;-75
2024/02/04 10:12:57;;;;;;;;;;;;;;;7.98;73.56;100050.54;137143;1276;23068;-72
2024/02/04 10:15:58;;;;;;;;;;;;;;;8.10;73.95;100052.27;137122;1276;22386;-73
2024/02/04 10:19:00;;;;;;;;;;;;;;;8.12;72.92;100041.77;137153;1276;22368;-74
2024/02/04 10:22:02;;;;;;;;;;;;;;;8.04;72.34;100033.81;137162;1275;22368;-73
2024/02/04 10:25:11;;;;;;;;;;;;;;;7.96;72.28;100025.71;137123;1272;23179;-71
2024/02/04 10:28:16;;;;;;;;;;;;;;;7.93;73.34;100035.00;136961;1276;22394;-72
2024/02/04 10:31:16;;;;;;;;;;;;;;;7.93;73.43;100027.08;137087;1273;22388;-71
2024/02/04 10:34:17;;;;;;;;;;;;;;;7.91;73.61;100027.81;137171;1276;22442;-75
2024/02/04 10:37:18;;;;;;;;;;;;;;;7.83;73.15;100015.20;137145;1276;22443;-73
2024/02/04 10:40:18;;;;;;;;;;;;;;;7.72;73.06;100013.10;137158;1276;23127;-74
2024/02/04 10:43:20;;;;;;;;;;;;;;;7.68;74.07;100011.45;137179;1276;22412;-73
2024/02/04 10:46:23;;;;;;;;;;;;;;;7.66;74.30;100003.99;137133;1276;23144;-74
2024/02/04 10:49:26;;;;;;;;;;;;;;;7.65;74.25;100002.33;137175;1276;22453;-73
2024/02/04 10:52:33;;;;;;;;;;;;;;;7.63;74.34;100001.45;137185;1276;22395;-73
2024/02/04 10:55:40;;;;;;;;;;;;;;;7.59;74.41;99990.82;137216;1276;23286;-73
2024/02/04 10:58:41;;;;;;;;;;;;;;;7.61;75.29;100000.44;137163;1270;22913;-73
2024/02/04 11:01:51;;;;;;;;;;;;;;;7.64;75.58;100000.83;137171;1276;22315;-74
2024/02/04 11:04:53;;;;;;;;;;;;;;;7.71;75.92;99988.25;137177;1276;22496;-74
2024/02/04 11:07:54;;;;;;;;;;;;;;;7.81;75.85;99977.90;137159;1276;22411;-75
2024/02/04 11:10:55;;;;;;;;;;;;;;;7.88;75.82;99970.31;137081;1276;22404;-74
2024/02/04 11:13:56;;;;;;;;;;;;;;;7.96;76.01;99966.54;137158;1270;22371;-73
2024/02/04 11:17:00;;;;;;;;;;;;;;;8.04;75.88;99960.02;137111;1276;22374;-73
2024/02/04 11:20:19;;;;;;;;;;;;;;;8.09;75.95;99957.44;136946;1276;22423;-72
2024/02/04 11:23:49;;;;;;;;;;;;;;;8.12;76.11;99941.84;137148;1276;22399;-73
2024/02/04 11:26:50;;;;;;;;;;;;;;;8.16;76.29;99940.95;137024;1276;23184;-75
2024/02/04 11:29:51;;;;;;;;;;;;;;;8.18;76.33;99937.13;137196;1273;22455;-73
2024/02/04 11:32:51;;;;;;;;;;;;;;;8.21;76.28;99923.48;137117;1276;22549;-77
2024/02/04 11:35:59;;;;;;;;;;;;;;;8.28;76.90;99913.70;137168;1276;22368;-74
2024/02/04 11:39:10;;;;;;;;;;;;;;;8.40;77.16;99903.42;137013;1276;22387;-73
2024/02/04 11:42:16;;;;;;;;;;;;;;;8.51;77.25;99901.54;137127;1276;22285;-74
2024/02/04 11:45:19;;;;;;;;;;;;;;;8.59;77.46;99899.20;137142;1276;22397;-74
2024/02/04 11:48:21;;;;;;;;;;;;;;;8.63;77.48;99907.77;137167;1276;22382;-73
2024/02/04 11:51:24;;;;;;;;;;;;;;;8.65;77.84;99905.94;137111;1276;22436;-74
2024/02/04 11:54:25;;;;;;;;;;;;;;;8.62;77.82;99907.80;137155;1276;22440;-73
2024/02/04 11:57:26;;;;;;;;;;;;;;;8.55;77.84;99909.48;136964;1276;22363;-74
2024/02/04 12:00:27;;;;;;;;;;;;;;;8.43;77.95;99902.34;137143;1273;22392;-74
2024/02/04 12:03:31;;;;;;;;;;;;;;;8.39;78.58;99898.27;137120;1276;22420;-74
2024/02/04 12:06:32;;;;;;;;;;;;;;;8.38;79.10;99892.73;137159;1276;22500;-74
2024/02/04 12:09:33;;;;;;;;;;;;;;;8.40;79.46;99881.69;137184;1276;22487;-76
2024/02/04 12:12:36;;;;;;;;;;;;;;;8.48;79.74;99871.41;137092;1276;22387;-76
2024/02/04 12:15:39;;;;;;;;;;;;;;;8.51;79.81;99870.12;137131;1276;22376;-74
2024/02/04 12:18:49;;;;;;;;;;;;;;;8.58;80.13;99869.96;137144;1276;23184;-76
2024/02/04 12:21:50;;;;;;;;;;;;;;;8.60;80.23;99861.69;137132;1276;22380;-74
2024/02/04 12:24:51;;;;;;;;;;;;;;;8.62;80.44;99854.09;137181;1270;22410;-75
2024/02/04 12:27:51;;;;;;;;;;;;;;;8.63;80.61;99841.02;137113;1276;23281;-76
2024/02/04 12:30:58;;;;;;;;;;;;;;;8.66;80.75;99832.87;137116;1276;22402;-76
2024/02/04 12:34:01;;;;;;;;;;;;;;;8.70;80.99;99830.46;137124;1276;22319;-77
2024/02/04 12:37:01;;;;;;;;;;;;;;;8.73;80.92;99822.54;137118;1276;22415;-75
2024/02/04 12:40:03;;;;;;;;;;;;;;;8.76;81.04;99809.38;137144;1276;22370;-75
2024/02/04 12:43:08;;;;;;;;;;;;;;;8.79;81.26;99810.88;137135;1276;22437;-75
2024/02/04 12:46:11;;;;;;;;;;;;;;;8.78;81.31;99808.27;137151;1273;22369;-75
2024/02/04 12:49:19;;;;;;;;;;;;;;;8.78;81.21;99800.36;137128;1276;22282;-73
2024/02/04 12:52:20;;;;;;;;;;;;;;;8.78;81.46;99784.31;136947;1276;22387;-74
2024/02/04 12:55:27;;;;;;;;;;;;;;;8.79;81.55;99782.20;137031;1276;22447;-76
2024/02/04 12:58:28;;;;;;;;;;;;;;;8.79;81.03;99777.35;136985;1270;22374;-73
2024/02/04 13:01:29;;;;;;;;;;;;;;;8.78;81.45;99776.68;137120;1276;22470;-73
2024/02/04 13:04:37;;;;;;;;;;;;;;;8.79;81.37;99769.70;137120;1276;22423;-74
2024/02/04 13:07:37;;;;;;;;;;;;;;;8.82;81.33;99762.54;137156;1271;22473;-72
2024/02/04 13:10:40;;;;;;;;;;;;;;;8.87;81.52;99758.48;137122;1276;22385;-73
2024/02/04 13:13:41;;;;;;;;;;;;;;;8.92;81.60;99758.77;137094;1269;22428;-73
2024/02/04 13:16:41;;;;;;;;;;;;;;;8.95;81.37;99756.02;136975;1276;22523;-77
2024/02/04 13:19:44;;;;;;;;;;;;;;;8.99;81.50;99754.90;137158;1276;23099;-74
2024/02/04 13:22:48;;;;;;;;;;;;;;;9.01;81.38;99746.95;137124;1276;22363;-74
2024/02/04 13:25:48;;;;;;;;;;;;;;;8.99;81.31;99749.08;137126;1271;23131;-75
2024/02/04 13:28:49;;;;;;;;;;;;;;;8.95;81.12;99749.48;137098;1275;23120;-73
2024/02/04 13:31:49;;;;;;;;;;;;;;;8.93;81.19;99748.84;137100;1276;22359;-75
2024/02/04 13:34:52;;;;;;;;;;;;;;;8.93;81.04;99743.88;137100;1276;22380;-72
2024/02/04 13:37:54;;;;;;;;;;;;;;;8.89;80.90;99743.72;137150;1276;22370;-73
2024/02/04 13:40:55;;;;;;;;;;;;;;;8.87;80.82;99738.50;137121;1276;22384;-74
2024/02/04 13:43:56;;;;;;;;;;;;;;;8.86;81.04;99739.11;137095;1276;22341;-77
2024/02/04 13:46:59;;;;;;;;;;;;;;;8.86;81.19;99729.43;137089;1276;22406;-78
2024/02/04 13:50:02;;;;;;;;;;;;;;;8.87;81.04;99730.29;137078;1276;22406;-78
2024/02/04 13:53:03;;;;;;;;;;;;;;;8.87;80.65;99726.02;137120;1276;22467;-79
2024/02/04 13:56:09;;;;;;;;;;;;;;;8.86;80.40;99723.64;137101;1276;22367;-79
2024/02/04 13:59:09;;;;;;;;;;;;;;;8.85;80.04;99723.38;137103;1276;22428;-81
2024/02/04 14:02:10;;;;;;;;;;;;;;;8.83;80.39;99725.93;137106;1271;22366;-74
2024/02/04 14:05:10;;;;;;;;;;;;;;;8.78;80.33;99734.02;137069;1276;23064;-75
2024/02/04 14:08:11;;;;;;;;;;;;;;;8.75;80.53;99735.25;137085;1276;22404;-80
2024/02/04 14:11:33;;;;;;;;;;;;;;;8.72;80.68;99725.10;137058;1276;23122;-79
2024/02/04 14:14:44;;;;;;;;;;;;;;;8.70;80.80;99736.42;137124;1276;23051;-84
2024/02/04 14:18:08;;;;;;;;;;;;;;;;;;;;;
2024/02/04 14:21:17;;;;;;;;;;;;;;;8.64;80.46;99736.08;137109;1276;22392;-81
2024/02/04 14:24:18;;;;;;;;;;;;;;;8.62;81.03;99738.60;136941;1267;22423;-81
2024/02/04 14:27:19;;;;;;;;;;;;;;;8.54;82.02;99744.84;137109;1276;22389;-82
2024/02/04 14:30:19;;;;;;;;;;;;;;;8.44;82.84;99748.39;137066;1276;22384;-81
2024/02/04 14:33:20;;;;;;;;;;;;;;;8.32;83.48;99757.58;137141;1276;22394;-81
2024/02/04 14:36:21;;;;;;;;;;;;;;;8.23;84.43;99748.14;137100;1276;22353;-81
2024/02/04 14:39:21;;;;;;;;;;;;;;;8.16;84.86;99732.85;137052;1276;22406;-82
2024/02/04 14:42:22;;;;;;;;;;;;;;;8.09;85.26;99729.27;136960;1276;22416;-82
2024/02/04 14:45:23;;;;;;;;;;;;;;;8.04;85.74;99727.92;137089;1269;22405;-82
2024/02/04 14:48:23;;;;;;;;;;;;;;;7.99;86.15;99718.36;137101;1276;22440;-82
2024/02/04 14:51:24;;;;;;;;;;;;;;;7.95;86.45;99709.83;136955;1274;22440;-82
2024/02/04 14:54:27;;;;;;;;;;;;;;;7.92;86.30;99702.38;137059;1276;22482;-82
2024/02/04 14:57:28;;;;;;;;;;;;;;;7.91;86.20;99699.30;136813;1276;22402;-81
2024/02/04 15:00:30;;;;;;;;;;;;;;;7.92;86.11;99698.69;137031;1270;22511;-81
2024/02/04 15:03:31;;;;;;;;;;;;;;;7.93;85.94;99700.50;136912;1276;22371;-82
2024/02/04 15:06:35;;;;;;;;;;;;;;;7.92;85.76;99701.32;137083;1276;22378;-82
2024/02/04 15:09:35;;;;;;;;;;;;;;;7.91;85.79;99709.38;137074;1276;22402;-82
2024/02/04 15:12:36;;;;;;;;;;;;;;;7.90;85.59;99712.77;137036;1276;22407;-82
2024/02/04 15:15:38;;;;;;;;;;;;;;;7.89;85.43;99713.48;137048;1273;22456;-82
2024/02/04 15:18:39;;;;;;;;;;;;;;;7.87;85.19;99714.35;137068;1276;23091;-82
2024/02/04 15:21:40;;;;;;;;;;;;;;;7.84;84.92;99712.00;136989;1276;22437;-82
2024/02/04 15:24:45;;;;;;;;;;;;;;;7.82;84.97;99709.88;137095;1276;22404;-82
2024/02/04 15:27:46;;;;;;;;;;;;;;;7.79;84.75;99712.34;136965;1276;22404;-82
2024/02/04 15:30:47;;;;;;;;;;;;;;;7.75;84.71;99706.38;137026;1276;22705;-83
2024/02/04 15:33:48;;;;;;;;;;;;;;;7.72;84.53;99699.89;136997;1276;22414;-82
2024/02/04 15:36:48;;;;;;;;;;;;;;;7.69;84.44;99695.83;137064;1276;22390;-83
2024/02/04 15:39:52;;;;;;;;;;;;;;;7.66;84.26;99696.80;136995;1276;22448;-83